sensor_id;sensor_type;location;lat;lon;timestamp;P1;durP1;ratioP1;P2;durP2;ratioP2
2458;SDS011;1241;50.920;6.936;2022-10-16T00:01:51;4.57;;;4.17;;
2458;SDS011;1241;50.920;6.936;2022-10-16T00:04:17;3.93;;;3.63;;
2458;SDS011;1241;50.920;6.936;2022-10-16T00:06:43;4.33;;;3.40;;
2458;SDS011;1241;50.920;6.936;2022-10-16T00:09:08;3.80;;;3.50;;
2458;SDS011;1241;50.920;6.936;2022-10-16T00:11:35;3.67;;;3.37;;
2458;SDS011;1241;50.920;6.936;2022-10-16T00:14:05;6.00;;;4.88;;
2458;SDS011;1241;50.920;6.936;2022-10-16T00:16:36;3.40;;;3.20;;
2458;SDS011;1241;50.920;6.936;2022-10-16T00:19:02;4.10;;;3.60;;
2458;SDS011;1241;50.920;6.936;2022-10-16T00:21:29;3.70;;;3.40;;
2458;SDS011;1241;50.920;6.936;2022-10-16T00:24:00;4.65;;;4.25;;
2458;SDS011;1241;50.920;6.936;2022-10-16T00:26:30;3.55;;;3.30;;
2458;SDS011;1241;50.920;6.936;2022-10-16T00:28:58;4.13;;;3.83;;
2458;SDS011;1241;50.920;6.936;2022-10-16T00:31:25;3.40;;;3.08;;
2458;SDS011;1241;50.920;6.936;2022-10-16T00:33:51;4.30;;;3.95;;
2458;SDS011;1241;50.920;6.936;2022-10-16T00:36:18;2.67;;;2.47;;
2458;SDS011;1241;50.920;6.936;2022-10-16T00:38:46;4.07;;;3.38;;
2458;SDS011;1241;50.920;6.936;2022-10-16T00:41:16;3.80;;;3.50;;
2458;SDS011;1241;50.920;6.936;2022-10-16T00:43:43;3.15;;;2.92;;
2458;SDS011;1241;50.920;6.936;2022-10-16T00:48:52;5.55;;;2.70;;
2458;SDS011;1241;50.920;6.936;2022-10-16T00:51:25;3.63;;;3.33;;
2458;SDS011;1241;50.920;6.936;2022-10-16T00:53:56;3.65;;;3.35;;
2458;SDS011;1241;50.920;6.936;2022-10-16T00:56:23;3.35;;;3.05;;
2458;SDS011;1241;50.920;6.936;2022-10-16T00:58:48;3.50;;;3.20;;
2458;SDS011;1241;50.920;6.936;2022-10-16T01:01:14;3.27;;;3.00;;
2458;SDS011;1241;50.920;6.936;2022-10-16T01:03:40;2.30;;;2.20;;
2458;SDS011;1241;50.920;6.936;2022-10-16T01:06:12;2.93;;;2.67;;
2458;SDS011;1241;50.920;6.936;2022-10-16T01:11:52;3.00;;;2.80;;
2458;SDS011;1241;50.920;6.936;2022-10-16T01:14:26;2.63;;;2.47;;
2458;SDS011;1241;50.920;6.936;2022-10-16T01:17:09;2.17;;;2.08;;
2458;SDS011;1241;50.920;6.936;2022-10-16T01:19:44;3.03;;;2.75;;
2458;SDS011;1241;50.920;6.936;2022-10-16T01:25:27;2.65;;;2.45;;
2458;SDS011;1241;50.920;6.936;2022-10-16T01:28:15;2.60;;;2.40;;
2458;SDS011;1241;50.920;6.936;2022-10-16T01:30:43;3.55;;;2.33;;
2458;SDS011;1241;50.920;6.936;2022-10-16T01:33:16;2.72;;;2.20;;
2458;SDS011;1241;50.920;6.936;2022-10-16T01:35:52;3.20;;;3.00;;
2458;SDS011;1241;50.920;6.936;2022-10-16T01:38:29;4.50;;;2.55;;
2458;SDS011;1241;50.920;6.936;2022-10-16T01:41:01;2.33;;;2.22;;
2458;SDS011;1241;50.920;6.936;2022-10-16T01:44:04;3.70;;;2.38;;
2458;SDS011;1241;50.920;6.936;2022-10-16T01:46:34;2.42;;;2.30;;
2458;SDS011;1241;50.920;6.936;2022-10-16T01:49:02;4.28;;;2.63;;
2458;SDS011;1241;50.920;6.936;2022-10-16T01:51:29;4.07;;;2.80;;
2458;SDS011;1241;50.920;6.936;2022-10-16T01:53:55;2.53;;;2.33;;
2458;SDS011;1241;50.920;6.936;2022-10-16T01:56:24;3.95;;;2.70;;
2458;SDS011;1241;50.920;6.936;2022-10-16T01:59:01;3.33;;;2.80;;
2458;SDS011;1241;50.920;6.936;2022-10-16T02:01:33;2.50;;;2.30;;
2458;SDS011;1241;50.920;6.936;2022-10-16T02:04:04;2.53;;;2.33;;
2458;SDS011;1241;50.920;6.936;2022-10-16T02:06:38;2.85;;;2.40;;
2458;SDS011;1241;50.920;6.936;2022-10-16T02:09:04;2.67;;;2.55;;
2458;SDS011;1241;50.920;6.936;2022-10-16T02:11:29;2.63;;;2.43;;
2458;SDS011;1241;50.920;6.936;2022-10-16T02:14:00;2.80;;;2.70;;
2458;SDS011;1241;50.920;6.936;2022-10-16T02:16:33;2.80;;;2.60;;
2458;SDS011;1241;50.920;6.936;2022-10-16T02:19:01;2.40;;;2.20;;
2458;SDS011;1241;50.920;6.936;2022-10-16T02:21:33;3.63;;;2.70;;
2458;SDS011;1241;50.920;6.936;2022-10-16T02:26:54;3.13;;;2.00;;
2458;SDS011;1241;50.920;6.936;2022-10-16T02:29:28;1.80;;;1.70;;
2458;SDS011;1241;50.920;6.936;2022-10-16T02:31:58;2.30;;;2.10;;
2458;SDS011;1241;50.920;6.936;2022-10-16T02:34:26;2.63;;;2.10;;
2458;SDS011;1241;50.920;6.936;2022-10-16T02:36:55;1.98;;;1.73;;
2458;SDS011;1241;50.920;6.936;2022-10-16T02:39:22;2.63;;;2.17;;
2458;SDS011;1241;50.920;6.936;2022-10-16T02:41:48;2.22;;;2.08;;
2458;SDS011;1241;50.920;6.936;2022-10-16T02:44:14;1.83;;;1.73;;
2458;SDS011;1241;50.920;6.936;2022-10-16T02:46:40;1.90;;;1.80;;
2458;SDS011;1241;50.920;6.936;2022-10-16T02:49:06;1.80;;;1.70;;
2458;SDS011;1241;50.920;6.936;2022-10-16T02:51:31;1.90;;;1.70;;
2458;SDS011;1241;50.920;6.936;2022-10-16T02:53:57;2.10;;;2.00;;
2458;SDS011;1241;50.920;6.936;2022-10-16T02:56:23;4.10;;;2.10;;
2458;SDS011;1241;50.920;6.936;2022-10-16T02:58:49;2.03;;;1.93;;
2458;SDS011;1241;50.920;6.936;2022-10-16T03:01:15;3.10;;;2.90;;
2458;SDS011;1241;50.920;6.936;2022-10-16T03:03:41;2.50;;;2.40;;
2458;SDS011;1241;50.920;6.936;2022-10-16T03:06:07;2.40;;;1.90;;
2458;SDS011;1241;50.920;6.936;2022-10-16T03:08:33;2.00;;;1.90;;
2458;SDS011;1241;50.920;6.936;2022-10-16T03:10:59;3.10;;;1.77;;
2458;SDS011;1241;50.920;6.936;2022-10-16T03:13:27;2.20;;;2.10;;
2458;SDS011;1241;50.920;6.936;2022-10-16T03:15:53;2.03;;;1.90;;
2458;SDS011;1241;50.920;6.936;2022-10-16T03:18:18;3.20;;;2.10;;
2458;SDS011;1241;50.920;6.936;2022-10-16T03:20:44;2.43;;;2.23;;
2458;SDS011;1241;50.920;6.936;2022-10-16T03:23:10;2.40;;;2.20;;
2458;SDS011;1241;50.920;6.936;2022-10-16T03:25:36;2.53;;;2.33;;
2458;SDS011;1241;50.920;6.936;2022-10-16T03:28:01;2.50;;;2.13;;
2458;SDS011;1241;50.920;6.936;2022-10-16T03:30:28;4.10;;;2.25;;
2458;SDS011;1241;50.920;6.936;2022-10-16T03:32:54;1.87;;;1.77;;
2458;SDS011;1241;50.920;6.936;2022-10-16T03:35:23;1.83;;;1.73;;
2458;SDS011;1241;50.920;6.936;2022-10-16T03:37:49;3.97;;;2.07;;
2458;SDS011;1241;50.920;6.936;2022-10-16T03:40:15;2.80;;;2.60;;
2458;SDS011;1241;50.920;6.936;2022-10-16T03:42:42;1.88;;;1.60;;
2458;SDS011;1241;50.920;6.936;2022-10-16T03:45:08;2.03;;;1.83;;
2458;SDS011;1241;50.920;6.936;2022-10-16T03:47:34;1.50;;;1.40;;
2458;SDS011;1241;50.920;6.936;2022-10-16T03:50:00;1.90;;;1.80;;
2458;SDS011;1241;50.920;6.936;2022-10-16T03:52:26;3.20;;;2.10;;
2458;SDS011;1241;50.920;6.936;2022-10-16T03:54:52;3.03;;;1.60;;
2458;SDS011;1241;50.920;6.936;2022-10-16T03:57:17;1.70;;;1.60;;
2458;SDS011;1241;50.920;6.936;2022-10-16T03:59:43;1.57;;;1.47;;
2458;SDS011;1241;50.920;6.936;2022-10-16T04:02:09;1.50;;;1.40;;
2458;SDS011;1241;50.920;6.936;2022-10-16T04:04:35;1.80;;;1.70;;
2458;SDS011;1241;50.920;6.936;2022-10-16T04:07:00;1.83;;;1.73;;
2458;SDS011;1241;50.920;6.936;2022-10-16T04:09:26;1.83;;;1.73;;
2458;SDS011;1241;50.920;6.936;2022-10-16T04:11:52;2.97;;;1.70;;
2458;SDS011;1241;50.920;6.936;2022-10-16T04:14:18;1.80;;;1.70;;
2458;SDS011;1241;50.920;6.936;2022-10-16T04:16:44;2.20;;;2.00;;
2458;SDS011;1241;50.920;6.936;2022-10-16T04:19:10;2.40;;;2.30;;
2458;SDS011;1241;50.920;6.936;2022-10-16T04:21:36;1.93;;;1.83;;
2458;SDS011;1241;50.920;6.936;2022-10-16T04:24:02;1.93;;;1.83;;
2458;SDS011;1241;50.920;6.936;2022-10-16T04:26:28;1.83;;;1.73;;
2458;SDS011;1241;50.920;6.936;2022-10-16T04:28:54;3.37;;;1.73;;
2458;SDS011;1241;50.920;6.936;2022-10-16T04:31:20;2.60;;;1.70;;
2458;SDS011;1241;50.920;6.936;2022-10-16T04:33:46;2.23;;;2.03;;
2458;SDS011;1241;50.920;6.936;2022-10-16T04:36:12;1.60;;;1.40;;
2458;SDS011;1241;50.920;6.936;2022-10-16T04:38:38;2.43;;;1.80;;
2458;SDS011;1241;50.920;6.936;2022-10-16T04:41:05;2.05;;;1.85;;
2458;SDS011;1241;50.920;6.936;2022-10-16T04:43:31;2.43;;;2.23;;
2458;SDS011;1241;50.920;6.936;2022-10-16T04:45:57;2.30;;;2.10;;
2458;SDS011;1241;50.920;6.936;2022-10-16T04:48:23;1.70;;;1.60;;
2458;SDS011;1241;50.920;6.936;2022-10-16T04:50:48;1.83;;;1.73;;
2458;SDS011;1241;50.920;6.936;2022-10-16T04:53:14;2.00;;;1.80;;
2458;SDS011;1241;50.920;6.936;2022-10-16T04:55:41;2.03;;;1.80;;
2458;SDS011;1241;50.920;6.936;2022-10-16T04:58:07;1.95;;;1.85;;
2458;SDS011;1241;50.920;6.936;2022-10-16T05:00:33;2.73;;;2.03;;
2458;SDS011;1241;50.920;6.936;2022-10-16T05:02:59;1.77;;;1.67;;
2458;SDS011;1241;50.920;6.936;2022-10-16T05:05:26;3.58;;;2.05;;
2458;SDS011;1241;50.920;6.936;2022-10-16T05:07:52;2.80;;;1.65;;
2458;SDS011;1241;50.920;6.936;2022-10-16T05:10:18;2.10;;;1.93;;
2458;SDS011;1241;50.920;6.936;2022-10-16T05:12:44;2.80;;;2.37;;
2458;SDS011;1241;50.920;6.936;2022-10-16T05:15:10;3.20;;;2.38;;
2458;SDS011;1241;50.920;6.936;2022-10-16T05:17:36;3.40;;;2.77;;
2458;SDS011;1241;50.920;6.936;2022-10-16T05:20:02;3.23;;;3.00;;
2458;SDS011;1241;50.920;6.936;2022-10-16T05:22:29;2.33;;;2.13;;
2458;SDS011;1241;50.920;6.936;2022-10-16T05:24:54;3.63;;;1.93;;
2458;SDS011;1241;50.920;6.936;2022-10-16T05:27:20;2.10;;;2.00;;
2458;SDS011;1241;50.920;6.936;2022-10-16T05:29:46;3.23;;;2.27;;
2458;SDS011;1241;50.920;6.936;2022-10-16T05:32:13;2.55;;;2.00;;
2458;SDS011;1241;50.920;6.936;2022-10-16T05:34:40;1.90;;;1.80;;
2458;SDS011;1241;50.920;6.936;2022-10-16T05:37:05;2.67;;;1.70;;
2458;SDS011;1241;50.920;6.936;2022-10-16T05:39:31;2.37;;;2.17;;
2458;SDS011;1241;50.920;6.936;2022-10-16T05:41:57;2.20;;;2.10;;
2458;SDS011;1241;50.920;6.936;2022-10-16T05:44:22;1.93;;;1.80;;
2458;SDS011;1241;50.920;6.936;2022-10-16T05:46:48;2.80;;;2.30;;
2458;SDS011;1241;50.920;6.936;2022-10-16T05:49:14;2.67;;;2.20;;
2458;SDS011;1241;50.920;6.936;2022-10-16T05:51:39;2.73;;;2.00;;
2458;SDS011;1241;50.920;6.936;2022-10-16T05:54:06;2.45;;;2.25;;
2458;SDS011;1241;50.920;6.936;2022-10-16T05:56:32;2.57;;;2.37;;
2458;SDS011;1241;50.920;6.936;2022-10-16T05:58:57;2.80;;;2.60;;
2458;SDS011;1241;50.920;6.936;2022-10-16T06:01:23;2.40;;;2.30;;
2458;SDS011;1241;50.920;6.936;2022-10-16T06:03:52;2.47;;;2.30;;
2458;SDS011;1241;50.920;6.936;2022-10-16T06:06:22;3.00;;;2.80;;
2458;SDS011;1241;50.920;6.936;2022-10-16T06:08:50;2.47;;;2.28;;
2458;SDS011;1241;50.920;6.936;2022-10-16T06:11:18;2.88;;;2.67;;
2458;SDS011;1241;50.920;6.936;2022-10-16T06:13:48;2.90;;;2.70;;
2458;SDS011;1241;50.920;6.936;2022-10-16T06:16:15;3.05;;;2.65;;
2458;SDS011;1241;50.920;6.936;2022-10-16T06:18:41;2.70;;;2.50;;
2458;SDS011;1241;50.920;6.936;2022-10-16T06:21:08;3.30;;;3.10;;
2458;SDS011;1241;50.920;6.936;2022-10-16T06:23:35;2.80;;;2.60;;
2458;SDS011;1241;50.920;6.936;2022-10-16T06:26:20;3.53;;;3.33;;
2458;SDS011;1241;50.920;6.936;2022-10-16T06:28:47;3.25;;;2.47;;
2458;SDS011;1241;50.920;6.936;2022-10-16T06:31:14;3.65;;;2.88;;
2458;SDS011;1241;50.920;6.936;2022-10-16T06:33:40;3.70;;;3.40;;
2458;SDS011;1241;50.920;6.936;2022-10-16T06:36:08;4.05;;;3.78;;
2458;SDS011;1241;50.920;6.936;2022-10-16T06:38:35;3.75;;;3.40;;
2458;SDS011;1241;50.920;6.936;2022-10-16T06:41:02;3.60;;;3.30;;
2458;SDS011;1241;50.920;6.936;2022-10-16T06:43:29;4.43;;;3.60;;
2458;SDS011;1241;50.920;6.936;2022-10-16T06:46:00;3.22;;;3.03;;
2458;SDS011;1241;50.920;6.936;2022-10-16T06:48:27;3.70;;;3.50;;
2458;SDS011;1241;50.920;6.936;2022-10-16T06:53:29;5.40;;;5.00;;
2458;SDS011;1241;50.920;6.936;2022-10-16T06:55:57;4.93;;;4.40;;
2458;SDS011;1241;50.920;6.936;2022-10-16T06:58:23;4.77;;;4.10;;
2458;SDS011;1241;50.920;6.936;2022-10-16T07:00:49;7.10;;;4.53;;
2458;SDS011;1241;50.920;6.936;2022-10-16T07:03:19;4.60;;;4.20;;
2458;SDS011;1241;50.920;6.936;2022-10-16T07:05:45;18.23;;;8.23;;
2458;SDS011;1241;50.920;6.936;2022-10-16T07:08:11;19.10;;;8.60;;
2458;SDS011;1241;50.920;6.936;2022-10-16T07:10:37;8.93;;;5.87;;
2458;SDS011;1241;50.920;6.936;2022-10-16T07:13:03;6.43;;;5.30;;
2458;SDS011;1241;50.920;6.936;2022-10-16T07:15:28;4.63;;;3.93;;
2458;SDS011;1241;50.920;6.936;2022-10-16T07:17:54;5.83;;;4.37;;
2458;SDS011;1241;50.920;6.936;2022-10-16T07:20:20;3.70;;;3.40;;
2458;SDS011;1241;50.920;6.936;2022-10-16T07:22:45;4.43;;;3.33;;
2458;SDS011;1241;50.920;6.936;2022-10-16T07:25:11;3.53;;;3.30;;
2458;SDS011;1241;50.920;6.936;2022-10-16T07:27:37;3.77;;;3.47;;
2458;SDS011;1241;50.920;6.936;2022-10-16T07:30:03;6.47;;;5.87;;
2458;SDS011;1241;50.920;6.936;2022-10-16T07:32:30;5.23;;;3.83;;
2458;SDS011;1241;50.920;6.936;2022-10-16T07:34:57;2.70;;;2.50;;
2458;SDS011;1241;50.920;6.936;2022-10-16T07:37:23;2.63;;;2.53;;
2458;SDS011;1241;50.920;6.936;2022-10-16T07:39:49;2.70;;;2.50;;
2458;SDS011;1241;50.920;6.936;2022-10-16T07:42:14;2.60;;;2.50;;
2458;SDS011;1241;50.920;6.936;2022-10-16T07:44:40;3.07;;;2.87;;
2458;SDS011;1241;50.920;6.936;2022-10-16T07:47:06;18.33;;;16.47;;
2458;SDS011;1241;50.920;6.936;2022-10-16T07:49:32;5.77;;;5.37;;
2458;SDS011;1241;50.920;6.936;2022-10-16T07:51:57;3.07;;;2.87;;
2458;SDS011;1241;50.920;6.936;2022-10-16T07:54:23;3.20;;;3.00;;
2458;SDS011;1241;50.920;6.936;2022-10-16T07:56:49;3.53;;;3.27;;
2458;SDS011;1241;50.920;6.936;2022-10-16T07:59:14;3.03;;;2.77;;
2458;SDS011;1241;50.920;6.936;2022-10-16T08:01:40;2.50;;;2.30;;
2458;SDS011;1241;50.920;6.936;2022-10-16T08:04:07;3.30;;;3.00;;
2458;SDS011;1241;50.920;6.936;2022-10-16T08:06:38;4.10;;;3.70;;
2458;SDS011;1241;50.920;6.936;2022-10-16T08:09:05;2.87;;;2.67;;
2458;SDS011;1241;50.920;6.936;2022-10-16T08:11:31;2.80;;;2.60;;
2458;SDS011;1241;50.920;6.936;2022-10-16T08:13:57;3.00;;;2.80;;
2458;SDS011;1241;50.920;6.936;2022-10-16T08:16:23;3.97;;;3.10;;
2458;SDS011;1241;50.920;6.936;2022-10-16T08:18:49;2.77;;;2.47;;
2458;SDS011;1241;50.920;6.936;2022-10-16T08:21:20;4.00;;;3.60;;
2458;SDS011;1241;50.920;6.936;2022-10-16T08:23:48;2.50;;;2.30;;
2458;SDS011;1241;50.920;6.936;2022-10-16T08:26:14;2.20;;;2.00;;
2458;SDS011;1241;50.920;6.936;2022-10-16T08:28:40;2.43;;;2.33;;
2458;SDS011;1241;50.920;6.936;2022-10-16T08:31:15;2.20;;;2.10;;
2458;SDS011;1241;50.920;6.936;2022-10-16T08:33:41;2.60;;;2.17;;
2458;SDS011;1241;50.920;6.936;2022-10-16T08:36:10;2.53;;;2.40;;
2458;SDS011;1241;50.920;6.936;2022-10-16T08:38:36;2.20;;;1.90;;
2458;SDS011;1241;50.920;6.936;2022-10-16T08:41:09;2.63;;;2.43;;
2458;SDS011;1241;50.920;6.936;2022-10-16T08:49:33;2.30;;;2.00;;
2458;SDS011;1241;50.920;6.936;2022-10-16T08:51:59;1.93;;;1.83;;
2458;SDS011;1241;50.920;6.936;2022-10-16T08:54:29;2.47;;;2.27;;
2458;SDS011;1241;50.920;6.936;2022-10-16T08:57:19;1.70;;;1.60;;
2458;SDS011;1241;50.920;6.936;2022-10-16T08:59:46;2.87;;;2.23;;
2458;SDS011;1241;50.920;6.936;2022-10-16T09:02:22;3.10;;;2.90;;
2458;SDS011;1241;50.920;6.936;2022-10-16T09:07:29;2.70;;;2.50;;
2458;SDS011;1241;50.920;6.936;2022-10-16T09:21:29;1.87;;;1.77;;
2458;SDS011;1241;50.920;6.936;2022-10-16T09:24:00;2.00;;;1.80;;
2458;SDS011;1241;50.920;6.936;2022-10-16T09:26:53;1.67;;;1.57;;
2458;SDS011;1241;50.920;6.936;2022-10-16T09:29:19;2.47;;;1.50;;
2458;SDS011;1241;50.920;6.936;2022-10-16T09:31:46;1.73;;;1.60;;
2458;SDS011;1241;50.920;6.936;2022-10-16T09:34:24;1.90;;;1.80;;
2458;SDS011;1241;50.920;6.936;2022-10-16T09:36:56;1.57;;;1.40;;
2458;SDS011;1241;50.920;6.936;2022-10-16T09:39:24;2.70;;;2.50;;
2458;SDS011;1241;50.920;6.936;2022-10-16T09:41:50;1.63;;;1.53;;
2458;SDS011;1241;50.920;6.936;2022-10-16T09:44:23;1.10;;;1.00;;
2458;SDS011;1241;50.920;6.936;2022-10-16T09:47:12;1.40;;;1.30;;
2458;SDS011;1241;50.920;6.936;2022-10-16T09:52:30;1.40;;;1.10;;
2458;SDS011;1241;50.920;6.936;2022-10-16T09:54:58;1.17;;;1.00;;
2458;SDS011;1241;50.920;6.936;2022-10-16T09:57:25;2.07;;;1.20;;
2458;SDS011;1241;50.920;6.936;2022-10-16T09:59:52;1.47;;;1.33;;
2458;SDS011;1241;50.920;6.936;2022-10-16T10:02:40;1.43;;;1.33;;
2458;SDS011;1241;50.920;6.936;2022-10-16T10:05:06;1.73;;;1.60;;
2458;SDS011;1241;50.920;6.936;2022-10-16T10:07:52;3.53;;;1.20;;
2458;SDS011;1241;50.920;6.936;2022-10-16T10:10:31;1.40;;;1.30;;
2458;SDS011;1241;50.920;6.936;2022-10-16T10:12:59;1.70;;;1.60;;
2458;SDS011;1241;50.920;6.936;2022-10-16T10:15:25;1.60;;;1.50;;
2458;SDS011;1241;50.920;6.936;2022-10-16T10:17:58;2.00;;;1.43;;
2458;SDS011;1241;50.920;6.936;2022-10-16T10:22:54;1.43;;;1.13;;
2458;SDS011;1241;50.920;6.936;2022-10-16T10:30:51;1.87;;;1.73;;
2458;SDS011;1241;50.920;6.936;2022-10-16T10:39:17;1.50;;;1.20;;
2458;SDS011;1241;50.920;6.936;2022-10-16T10:47:20;1.70;;;1.10;;
2458;SDS011;1241;50.920;6.936;2022-10-16T11:01:25;2.60;;;1.70;;
2458;SDS011;1241;50.920;6.936;2022-10-16T11:04:19;2.60;;;1.73;;
2458;SDS011;1241;50.920;6.936;2022-10-16T11:06:55;2.57;;;2.30;;
2458;SDS011;1241;50.920;6.936;2022-10-16T11:09:33;1.53;;;1.43;;
2458;SDS011;1241;50.920;6.936;2022-10-16T11:12:11;2.10;;;1.90;;
2458;SDS011;1241;50.920;6.936;2022-10-16T11:14:51;1.33;;;1.27;;
2458;SDS011;1241;50.920;6.936;2022-10-16T11:17:55;2.50;;;1.47;;
2458;SDS011;1241;50.920;6.936;2022-10-16T11:20:29;2.83;;;1.20;;
2458;SDS011;1241;50.920;6.936;2022-10-16T11:23:04;0.83;;;0.83;;
2458;SDS011;1241;50.920;6.936;2022-10-16T11:25:41;2.10;;;1.13;;
2458;SDS011;1241;50.920;6.936;2022-10-16T11:30:56;3.17;;;1.40;;
2458;SDS011;1241;50.920;6.936;2022-10-16T11:33:49;0.90;;;0.90;;
2458;SDS011;1241;50.920;6.936;2022-10-16T11:36:58;1.13;;;1.13;;
2458;SDS011;1241;50.920;6.936;2022-10-16T11:39:37;2.47;;;1.80;;
2458;SDS011;1241;50.920;6.936;2022-10-16T11:42:11;2.10;;;1.63;;
2458;SDS011;1241;50.920;6.936;2022-10-16T11:44:43;1.20;;;1.10;;
2458;SDS011;1241;50.920;6.936;2022-10-16T11:49:56;1.40;;;1.30;;
2458;SDS011;1241;50.920;6.936;2022-10-16T11:55:39;1.43;;;0.90;;
2458;SDS011;1241;50.920;6.936;2022-10-16T12:03:35;2.37;;;1.13;;
2458;SDS011;1241;50.920;6.936;2022-10-16T12:06:19;1.33;;;1.23;;
2458;SDS011;1241;50.920;6.936;2022-10-16T12:09:09;1.70;;;1.23;;
2458;SDS011;1241;50.920;6.936;2022-10-16T12:11:54;1.20;;;1.20;;
2458;SDS011;1241;50.920;6.936;2022-10-16T12:14:21;1.07;;;1.07;;
2458;SDS011;1241;50.920;6.936;2022-10-16T12:17:26;0.80;;;0.80;;
2458;SDS011;1241;50.920;6.936;2022-10-16T12:20:00;1.63;;;1.17;;
2458;SDS011;1241;50.920;6.936;2022-10-16T12:22:55;2.00;;;1.90;;
2458;SDS011;1241;50.920;6.936;2022-10-16T12:25:27;4.37;;;1.67;;
2458;SDS011;1241;50.920;6.936;2022-10-16T12:28:01;1.37;;;1.10;;
2458;SDS011;1241;50.920;6.936;2022-10-16T12:30:32;1.50;;;1.40;;
2458;SDS011;1241;50.920;6.936;2022-10-16T12:33:01;0.80;;;0.80;;
2458;SDS011;1241;50.920;6.936;2022-10-16T12:35:45;1.50;;;1.03;;
2458;SDS011;1241;50.920;6.936;2022-10-16T12:38:15;1.17;;;0.83;;
2458;SDS011;1241;50.920;6.936;2022-10-16T12:40:59;1.30;;;1.17;;
2458;SDS011;1241;50.920;6.936;2022-10-16T12:43:45;1.70;;;1.20;;
2458;SDS011;1241;50.920;6.936;2022-10-16T12:48:39;2.00;;;1.30;;
2458;SDS011;1241;50.920;6.936;2022-10-16T12:51:49;2.40;;;1.33;;
2458;SDS011;1241;50.920;6.936;2022-10-16T12:56:40;1.20;;;1.10;;
2458;SDS011;1241;50.920;6.936;2022-10-16T12:59:18;1.17;;;1.10;;
2458;SDS011;1241;50.920;6.936;2022-10-16T13:05:03;1.53;;;1.33;;
2458;SDS011;1241;50.920;6.936;2022-10-16T13:13:47;1.53;;;1.30;;
2458;SDS011;1241;50.920;6.936;2022-10-16T13:18:48;1.37;;;1.27;;
2458;SDS011;1241;50.920;6.936;2022-10-16T13:24:04;1.57;;;1.30;;
2458;SDS011;1241;50.920;6.936;2022-10-16T13:29:29;1.30;;;1.13;;
2458;SDS011;1241;50.920;6.936;2022-10-16T13:31:57;1.10;;;1.00;;
2458;SDS011;1241;50.920;6.936;2022-10-16T13:34:25;2.53;;;2.33;;
2458;SDS011;1241;50.920;6.936;2022-10-16T13:36:53;2.07;;;1.90;;
2458;SDS011;1241;50.920;6.936;2022-10-16T13:39:23;2.03;;;1.90;;
2458;SDS011;1241;50.920;6.936;2022-10-16T13:44:27;1.60;;;1.50;;
2458;SDS011;1241;50.920;6.936;2022-10-16T13:47:00;0.80;;;0.80;;
2458;SDS011;1241;50.920;6.936;2022-10-16T13:49:28;1.13;;;1.13;;
2458;SDS011;1241;50.920;6.936;2022-10-16T13:51:55;1.33;;;1.23;;
2458;SDS011;1241;50.920;6.936;2022-10-16T13:54:22;2.83;;;1.53;;
2458;SDS011;1241;50.920;6.936;2022-10-16T13:56:49;2.17;;;1.93;;
2458;SDS011;1241;50.920;6.936;2022-10-16T13:59:24;2.23;;;1.43;;
2458;SDS011;1241;50.920;6.936;2022-10-16T14:01:53;1.97;;;1.77;;
2458;SDS011;1241;50.920;6.936;2022-10-16T14:04:22;1.60;;;1.50;;
2458;SDS011;1241;50.920;6.936;2022-10-16T14:06:49;1.37;;;1.27;;
2458;SDS011;1241;50.920;6.936;2022-10-16T14:09:20;1.43;;;1.30;;
2458;SDS011;1241;50.920;6.936;2022-10-16T14:11:50;1.87;;;1.30;;
2458;SDS011;1241;50.920;6.936;2022-10-16T14:14:19;3.00;;;1.30;;
2458;SDS011;1241;50.920;6.936;2022-10-16T14:16:45;2.70;;;1.90;;
2458;SDS011;1241;50.920;6.936;2022-10-16T14:19:22;3.33;;;2.00;;
2458;SDS011;1241;50.920;6.936;2022-10-16T14:21:51;2.20;;;1.80;;
2458;SDS011;1241;50.920;6.936;2022-10-16T14:24:35;1.60;;;1.50;;
2458;SDS011;1241;50.920;6.936;2022-10-16T14:27:01;2.70;;;1.50;;
2458;SDS011;1241;50.920;6.936;2022-10-16T14:29:28;2.13;;;1.50;;
2458;SDS011;1241;50.920;6.936;2022-10-16T14:31:59;1.60;;;1.50;;
2458;SDS011;1241;50.920;6.936;2022-10-16T14:34:27;1.23;;;1.13;;
2458;SDS011;1241;50.920;6.936;2022-10-16T14:37:02;1.63;;;1.53;;
2458;SDS011;1241;50.920;6.936;2022-10-16T14:39:34;1.63;;;1.53;;
2458;SDS011;1241;50.920;6.936;2022-10-16T14:42:00;1.90;;;1.80;;
2458;SDS011;1241;50.920;6.936;2022-10-16T14:44:28;1.50;;;1.40;;
2458;SDS011;1241;50.920;6.936;2022-10-16T14:46:57;3.80;;;1.70;;
2458;SDS011;1241;50.920;6.936;2022-10-16T14:49:31;2.30;;;1.80;;
2458;SDS011;1241;50.920;6.936;2022-10-16T14:51:57;1.80;;;1.70;;
2458;SDS011;1241;50.920;6.936;2022-10-16T14:54:23;2.80;;;2.60;;
2458;SDS011;1241;50.920;6.936;2022-10-16T14:56:53;1.83;;;1.57;;
2458;SDS011;1241;50.920;6.936;2022-10-16T14:59:30;1.80;;;1.70;;
2458;SDS011;1241;50.920;6.936;2022-10-16T15:02:02;1.87;;;1.77;;
2458;SDS011;1241;50.920;6.936;2022-10-16T15:04:50;2.77;;;2.07;;
2458;SDS011;1241;50.920;6.936;2022-10-16T15:07:16;1.80;;;1.70;;
2458;SDS011;1241;50.920;6.936;2022-10-16T15:09:41;2.10;;;1.90;;
2458;SDS011;1241;50.920;6.936;2022-10-16T15:12:07;2.17;;;1.97;;
2458;SDS011;1241;50.920;6.936;2022-10-16T15:14:33;1.93;;;1.80;;
2458;SDS011;1241;50.920;6.936;2022-10-16T15:16:59;7.07;;;2.37;;
2458;SDS011;1241;50.920;6.936;2022-10-16T15:19:25;2.33;;;1.93;;
2458;SDS011;1241;50.920;6.936;2022-10-16T15:21:50;2.13;;;2.03;;
2458;SDS011;1241;50.920;6.936;2022-10-16T15:24:17;4.53;;;3.93;;
2458;SDS011;1241;50.920;6.936;2022-10-16T15:26:43;3.77;;;2.67;;
2458;SDS011;1241;50.920;6.936;2022-10-16T15:29:11;2.57;;;2.33;;
2458;SDS011;1241;50.920;6.936;2022-10-16T15:31:37;2.60;;;2.10;;
2458;SDS011;1241;50.920;6.936;2022-10-16T15:34:03;1.90;;;1.60;;
2458;SDS011;1241;50.920;6.936;2022-10-16T15:36:35;1.60;;;1.40;;
2458;SDS011;1241;50.920;6.936;2022-10-16T15:39:06;3.10;;;1.63;;
2458;SDS011;1241;50.920;6.936;2022-10-16T15:41:39;2.80;;;1.50;;
2458;SDS011;1241;50.920;6.936;2022-10-16T15:44:05;1.50;;;1.40;;
2458;SDS011;1241;50.920;6.936;2022-10-16T15:46:30;1.30;;;1.20;;
2458;SDS011;1241;50.920;6.936;2022-10-16T15:48:58;1.60;;;1.50;;
2458;SDS011;1241;50.920;6.936;2022-10-16T15:51:25;1.90;;;1.60;;
2458;SDS011;1241;50.920;6.936;2022-10-16T15:53:55;1.13;;;1.13;;
2458;SDS011;1241;50.920;6.936;2022-10-16T15:56:21;1.53;;;1.43;;
2458;SDS011;1241;50.920;6.936;2022-10-16T15:58:48;1.10;;;1.10;;
2458;SDS011;1241;50.920;6.936;2022-10-16T16:01:13;1.83;;;1.73;;
2458;SDS011;1241;50.920;6.936;2022-10-16T16:03:39;2.03;;;1.77;;
2458;SDS011;1241;50.920;6.936;2022-10-16T16:06:09;3.63;;;2.60;;
2458;SDS011;1241;50.920;6.936;2022-10-16T16:08:37;3.07;;;2.87;;
2458;SDS011;1241;50.920;6.936;2022-10-16T16:11:08;1.57;;;1.40;;
2458;SDS011;1241;50.920;6.936;2022-10-16T16:13:35;3.10;;;1.80;;
2458;SDS011;1241;50.920;6.936;2022-10-16T16:16:09;2.03;;;1.93;;
2458;SDS011;1241;50.920;6.936;2022-10-16T16:18:37;2.70;;;1.97;;
2458;SDS011;1241;50.920;6.936;2022-10-16T16:21:03;1.50;;;1.40;;
2458;SDS011;1241;50.920;6.936;2022-10-16T16:23:29;2.23;;;2.00;;
2458;SDS011;1241;50.920;6.936;2022-10-16T16:28:31;2.50;;;2.30;;
2458;SDS011;1241;50.920;6.936;2022-10-16T16:30:57;2.23;;;1.70;;
2458;SDS011;1241;50.920;6.936;2022-10-16T16:33:22;2.10;;;2.00;;
2458;SDS011;1241;50.920;6.936;2022-10-16T16:35:49;1.70;;;1.60;;
2458;SDS011;1241;50.920;6.936;2022-10-16T16:38:14;1.67;;;1.57;;
2458;SDS011;1241;50.920;6.936;2022-10-16T16:40:40;1.60;;;1.50;;
2458;SDS011;1241;50.920;6.936;2022-10-16T16:43:09;2.20;;;2.00;;
2458;SDS011;1241;50.920;6.936;2022-10-16T16:45:35;3.90;;;2.83;;
2458;SDS011;1241;50.920;6.936;2022-10-16T16:48:01;2.80;;;2.27;;
2458;SDS011;1241;50.920;6.936;2022-10-16T16:50:26;6.00;;;2.50;;
2458;SDS011;1241;50.920;6.936;2022-10-16T16:52:52;1.90;;;1.80;;
2458;SDS011;1241;50.920;6.936;2022-10-16T16:55:18;3.17;;;2.30;;
2458;SDS011;1241;50.920;6.936;2022-10-16T16:57:44;2.20;;;2.10;;
2458;SDS011;1241;50.920;6.936;2022-10-16T17:00:12;2.00;;;1.90;;
2458;SDS011;1241;50.920;6.936;2022-10-16T17:02:38;2.47;;;2.27;;
2458;SDS011;1241;50.920;6.936;2022-10-16T17:05:08;3.33;;;2.17;;
2458;SDS011;1241;50.920;6.936;2022-10-16T17:07:34;3.13;;;2.87;;
2458;SDS011;1241;50.920;6.936;2022-10-16T17:10:00;2.63;;;2.43;;
2458;SDS011;1241;50.920;6.936;2022-10-16T17:12:28;5.40;;;4.40;;
2458;SDS011;1241;50.920;6.936;2022-10-16T17:14:55;3.33;;;2.80;;
2458;SDS011;1241;50.920;6.936;2022-10-16T17:17:21;3.70;;;2.90;;
2458;SDS011;1241;50.920;6.936;2022-10-16T17:19:48;5.23;;;2.90;;